Batna, Algeria

19:41 CET le 19 février 2017 (GMT +0100)
Mohamed Boudiaf | | Change Station

Alt. 2277 ft 36.28 °N, 6.62 °E | Updated 11 minutes ago

Nuageux
Nuageux
50 ° F
Paraît 50 ° F
N
0
Vent Variable Vent de Nord

Aujourd'hui
Haut(e) -- | Bas -- ° F
--% Risque de précip.
Hier
Haut(e) -- | Bas -- ° F
Precip. -- pouce
Pression 30.18 pouce
Visibilité 6.2 Miles terrestres
Nuages Nuages épars 2600 ft
Nuages épars 20000 ft
Point de rosée 41 ° F
Humidité 71%
Précipitations 0.00 pouce
Profondeur de la couche neigeuse Non disponible.
7:17 AM 6:20 PM
Dernier quartier, 41% visible
METAR DABC 191830Z 00000KT 9999 SCT026 SCT200 10/05 Q1022
Pression 30.18 pouce
Visibilité 6.2 Miles terrestres
Nuages Nuages épars 2600 ft
Nuages épars 20000 ft
Point de rosée 41 ° F
Humidité 71%
Précipitations 0.00 pouce
Profondeur de la couche neigeuse Non disponible.
7:17 AM 6:20 PM
Dernier quartier, 41% visible
METAR DABC 191830Z 00000KT 9999 SCT026 SCT200 10/05 Q1022

Get Your Daily Forecast Email!

Thanks for signing up!

Be on the lookout for a verification email in your inbox.

You'll start receiving the daily forecast at 8 AM.

×

10-Day Weather Forecast

No radar image for this location.
×

Almanac

Astronomie

Feb. 19, 2017 Lever Coucher
Temps réel
Crépuscule civil
Crépuscule nautique
Crépuscule astronomique
Lune
Durée de lumière visible
Longueur du jour
Tomorrow will be .
, % of the Moon is Illuminated

Extrêmes aujourd'hui

Country Highs Country Lows

Community

WunderPhotos

Upload Photos

1,962,540 Photos téléchargées !

WunderBlog® & News

Nearby

Qualité de l'air

  Qualité de l'air Indice de la qualité de l'air Polluant
Not available.

Épaisseur de neige

Station Depth Altitude

Activité sismique

Ville Distance Mag. Time & Date
Minimum magnitude displayed is 2.5.

Températures des eaux côtières

Lieu Température

Stations

Stations météo à proximité

Emplacement de la station Température Refroidissement éolien Point de rosée Humidité Vent Precip. Alt. Mise à jour Type